createdAt,value
2023-05-02T00:00:29.388Z,65.50
2023-05-02T00:02:56.327Z,65.40
2023-05-02T00:05:23.221Z,65.50
2023-05-02T00:07:51.146Z,65.50
2023-05-02T00:10:18.099Z,65.50
2023-05-02T00:12:44.855Z,66.00
2023-05-02T00:15:11.652Z,65.80
2023-05-02T00:17:40.604Z,65.80
2023-05-02T00:20:09.427Z,65.80
2023-05-02T00:22:36.319Z,65.50
2023-05-02T00:25:03.272Z,65.50
2023-05-02T00:27:30.605Z,65.40
2023-05-02T00:29:58.570Z,65.30
2023-05-02T00:32:26.052Z,64.90
2023-05-02T00:34:53.082Z,64.90
2023-05-02T00:37:19.881Z,64.70
2023-05-02T00:39:46.642Z,64.80
2023-05-02T00:42:13.340Z,64.20
2023-05-02T00:44:40.532Z,64.50
2023-05-02T00:47:07.340Z,64.80
2023-05-02T00:49:34.072Z,64.70
2023-05-02T00:52:00.874Z,65.20
2023-05-02T00:54:27.691Z,65.10
2023-05-02T00:56:54.389Z,64.90
2023-05-02T00:59:21.163Z,65.10
2023-05-02T01:02:06.775Z,64.90
2023-05-02T01:04:33.450Z,64.90
2023-05-02T01:07:19.146Z,64.80
2023-05-02T01:09:48.652Z,64.40
2023-05-02T01:12:18.164Z,64.70
2023-05-02T01:14:47.018Z,64.40
2023-05-02T01:17:15.126Z,64.60
2023-05-02T01:19:44.068Z,64.80
2023-05-02T01:22:11.272Z,64.20
2023-05-02T01:24:43.136Z,64.50
2023-05-02T01:27:13.034Z,64.40
2023-05-02T01:29:40.646Z,63.90
2023-05-02T01:32:08.810Z,64.00
2023-05-02T01:34:38.705Z,64.10
2023-05-02T01:37:06.306Z,64.20
2023-05-02T01:39:33.705Z,64.00
2023-05-02T01:42:02.687Z,63.70
2023-05-02T01:44:30.216Z,63.40
2023-05-02T01:46:58.008Z,63.40
2023-05-02T01:49:26.084Z,63.60
2023-05-02T01:51:53.198Z,63.30
2023-05-02T01:54:21.403Z,63.30
2023-05-02T01:56:49.332Z,62.80
2023-05-02T01:59:18.465Z,62.60
2023-05-02T02:01:46.066Z,62.60
2023-05-02T02:04:13.936Z,62.50
2023-05-02T02:06:43.615Z,62.00
2023-05-02T02:09:10.457Z,62.10
2023-05-02T02:11:44.022Z,61.50
2023-05-02T02:14:25.104Z,60.20
2023-05-02T02:16:55.302Z,60.90
2023-05-02T02:19:22.793Z,61.20
2023-05-02T02:21:50.956Z,61.50
2023-05-02T02:24:18.606Z,61.50
2023-05-02T02:26:46.440Z,61.90
2023-05-02T02:29:13.262Z,61.90
2023-05-02T02:31:40.257Z,61.60
2023-05-02T02:34:07.240Z,61.70
2023-05-02T02:36:33.937Z,61.30
2023-05-02T02:39:23.709Z,61.40
2023-05-02T02:41:50.496Z,61.50
2023-05-02T02:44:28.366Z,61.20
2023-05-02T02:47:03.937Z,61.00
2023-05-02T02:49:54.034Z,61.40
2023-05-02T02:52:47.169Z,61.20
2023-05-02T02:55:20.095Z,60.90
2023-05-02T02:58:04.254Z,61.00
2023-05-02T03:00:32.639Z,61.10
2023-05-02T03:03:00.494Z,61.10
2023-05-02T03:05:27.553Z,60.80
2023-05-02T03:07:54.373Z,60.50
2023-05-02T03:10:22.392Z,60.30
2023-05-02T03:12:49.168Z,60.60
2023-05-02T03:15:33.007Z,60.30
2023-05-02T03:17:59.789Z,60.00
2023-05-02T03:20:26.593Z,60.10
2023-05-02T03:22:53.525Z,60.20
2023-05-02T03:25:20.397Z,60.10
2023-05-02T03:27:47.124Z,60.20
2023-05-02T03:30:13.830Z,59.10
2023-05-02T03:32:40.668Z,57.40
2023-05-02T03:35:07.572Z,56.00
2023-05-02T03:37:35.296Z,55.30
2023-05-02T03:40:02.237Z,54.80
2023-05-02T03:42:29.239Z,53.70
2023-05-02T03:44:56.302Z,52.80
2023-05-02T03:47:23.104Z,52.00
2023-05-02T03:49:49.883Z,51.50
2023-05-02T03:52:16.630Z,52.10
2023-05-02T03:54:43.784Z,53.10
2023-05-02T03:57:10.708Z,53.70
2023-05-02T03:59:41.620Z,55.00
2023-05-02T04:02:09.067Z,54.20
2023-05-02T04:04:36.500Z,54.20
2023-05-02T04:07:03.532Z,54.10
2023-05-02T04:09:30.249Z,53.80
2023-05-02T04:11:57.016Z,52.80
2023-05-02T04:14:23.781Z,52.00
2023-05-02T04:16:51.310Z,50.90
2023-05-02T04:19:19.006Z,50.60
2023-05-02T04:21:45.961Z,50.40
2023-05-02T04:24:13.476Z,50.60
2023-05-02T04:26:40.604Z,49.80
2023-05-02T04:29:07.440Z,50.10
2023-05-02T04:31:34.542Z,50.00
2023-05-02T04:34:01.633Z,49.00
2023-05-02T04:36:28.603Z,48.70
2023-05-02T04:38:55.353Z,48.90
2023-05-02T04:41:23.199Z,48.60
2023-05-02T04:43:50.011Z,47.70
2023-05-02T04:46:18.154Z,48.10
2023-05-02T04:48:44.921Z,49.10
2023-05-02T04:51:11.651Z,48.90
2023-05-02T04:53:38.619Z,49.50
2023-05-02T04:56:05.649Z,49.60
2023-05-02T04:58:32.450Z,49.80
2023-05-02T05:00:59.197Z,50.10
2023-05-02T05:03:26.019Z,50.50
2023-05-02T05:05:52.786Z,50.80
2023-05-02T05:08:19.531Z,50.30
2023-05-02T05:10:46.249Z,49.60
2023-05-02T05:13:14.002Z,49.40
2023-05-02T05:15:40.744Z,48.60
2023-05-02T05:18:07.683Z,48.10
2023-05-02T05:20:34.460Z,48.60
2023-05-02T05:23:01.205Z,47.70
2023-05-02T05:25:28.027Z,47.50
2023-05-02T05:27:57.647Z,47.40
2023-05-02T05:30:25.152Z,48.00
2023-05-02T05:32:53.160Z,47.50
2023-05-02T05:35:19.966Z,47.10
2023-05-02T05:37:46.711Z,46.70
2023-05-02T05:40:13.475Z,46.80
2023-05-02T05:42:40.294Z,46.50
2023-05-02T05:45:07.508Z,45.50
2023-05-02T05:47:34.556Z,44.70
2023-05-02T05:50:01.821Z,44.50
2023-05-02T05:52:28.940Z,43.70
2023-05-02T05:54:56.739Z,42.80
2023-05-02T05:57:23.915Z,43.00
2023-05-02T05:59:51.114Z,43.10
2023-05-02T06:02:19.821Z,42.10
2023-05-02T06:04:47.067Z,42.60
2023-05-02T06:07:13.880Z,42.80
2023-05-02T06:09:40.655Z,42.00
2023-05-02T06:12:07.470Z,41.60
2023-05-02T06:14:34.223Z,41.70
2023-05-02T06:17:00.968Z,41.40
2023-05-02T06:19:27.691Z,40.60
2023-05-02T06:21:54.399Z,40.00
2023-05-02T06:24:21.138Z,39.10
2023-05-02T06:26:47.907Z,40.10
2023-05-02T06:29:14.647Z,41.50
2023-05-02T06:31:41.453Z,41.10
2023-05-02T06:34:08.226Z,40.40
2023-05-02T06:36:36.023Z,40.90
2023-05-02T06:39:02.830Z,41.00
2023-05-02T06:41:29.551Z,39.50
2023-05-02T06:43:56.681Z,40.20
2023-05-02T06:46:23.452Z,39.40
2023-05-02T06:48:50.251Z,38.50
2023-05-02T06:51:17.084Z,39.00
2023-05-02T06:53:43.844Z,39.90
2023-05-02T06:56:10.675Z,41.50
2023-05-02T06:58:37.512Z,42.30
2023-05-02T07:01:04.332Z,43.20
2023-05-02T07:03:31.212Z,43.60
2023-05-02T07:05:58.150Z,43.70
2023-05-02T07:08:24.910Z,42.90
2023-05-02T07:10:51.812Z,42.50
2023-05-02T07:13:18.551Z,43.00
2023-05-02T07:15:45.290Z,42.20
2023-05-02T07:18:12.111Z,43.00
2023-05-02T07:20:40.322Z,42.80
2023-05-02T07:23:07.202Z,42.50
2023-05-02T07:25:33.989Z,43.20
2023-05-02T07:28:00.771Z,42.60
2023-05-02T07:30:27.513Z,42.70
2023-05-02T07:32:54.296Z,42.60
2023-05-02T07:35:21.190Z,42.40
2023-05-02T07:37:47.984Z,43.00
2023-05-02T07:40:15.063Z,41.20
2023-05-02T07:42:42.124Z,39.70
2023-05-02T07:45:09.168Z,39.90
2023-05-02T07:47:36.399Z,39.20
2023-05-02T07:50:06.516Z,38.00
2023-05-02T07:52:33.253Z,37.70
2023-05-02T07:55:00.014Z,38.20
2023-05-02T07:57:27.076Z,38.40
2023-05-02T07:59:53.916Z,38.90
2023-05-02T08:02:21.834Z,38.30
2023-05-02T08:04:49.242Z,37.70
2023-05-02T08:07:16.303Z,39.40
2023-05-02T08:09:43.119Z,39.10
2023-05-02T08:12:09.937Z,37.30
2023-05-02T08:14:36.727Z,37.00
2023-05-02T08:17:03.553Z,36.80
2023-05-02T08:19:30.469Z,37.40
2023-05-02T08:24:25.672Z,36.20
2023-05-02T08:26:52.388Z,36.60
2023-05-02T08:29:19.405Z,36.60
2023-05-02T08:31:46.337Z,36.00
2023-05-02T08:34:13.082Z,36.60
2023-05-02T08:36:39.843Z,35.90
2023-05-02T08:39:08.286Z,35.60
2023-05-02T08:44:04.302Z,34.30
2023-05-02T08:46:31.829Z,35.30
2023-05-02T08:48:59.160Z,36.00
2023-05-02T08:51:29.009Z,36.90
2023-05-02T08:53:56.308Z,36.40
2023-05-02T08:56:23.036Z,36.80
2023-05-02T08:58:49.793Z,36.00
2023-05-02T09:01:18.006Z,35.80
2023-05-02T09:03:45.553Z,35.60
2023-05-02T09:06:22.571Z,36.70
2023-05-02T09:08:50.179Z,37.20
2023-05-02T09:11:17.426Z,37.40
2023-05-02T09:13:48.325Z,37.20
2023-05-02T09:16:24.120Z,37.30
2023-05-02T09:18:50.929Z,37.00
2023-05-02T09:21:20.719Z,37.70
2023-05-02T09:23:48.578Z,38.20
2023-05-02T09:26:18.633Z,38.60
2023-05-02T09:28:52.848Z,38.10
2023-05-02T09:31:43.334Z,38.20
2023-05-02T09:34:12.620Z,39.10
2023-05-02T09:36:43.179Z,39.40
2023-05-02T09:39:11.515Z,39.60
2023-05-02T09:41:45.505Z,39.60
2023-05-02T09:44:13.372Z,38.40
2023-05-02T09:46:44.248Z,39.00
2023-05-02T09:49:11.238Z,38.30
2023-05-02T09:51:38.306Z,38.40
2023-05-02T09:54:05.073Z,38.20
2023-05-02T09:56:31.931Z,37.60
2023-05-02T09:59:15.323Z,37.80
2023-05-02T10:01:42.566Z,39.20
2023-05-02T10:04:17.116Z,37.20
2023-05-02T10:06:44.578Z,35.50
2023-05-02T10:09:15.426Z,35.70
2023-05-02T10:11:45.322Z,34.60
2023-05-02T10:14:12.432Z,34.20
2023-05-02T10:16:43.902Z,35.70
2023-05-02T10:19:12.345Z,36.80
2023-05-02T10:21:39.374Z,37.60
2023-05-02T10:24:06.639Z,38.80
2023-05-02T10:26:34.688Z,39.30
2023-05-02T10:29:01.889Z,38.10
2023-05-02T10:31:33.037Z,37.60
2023-05-02T10:34:01.868Z,37.90
2023-05-02T10:36:28.621Z,37.70
2023-05-02T10:38:55.519Z,38.40
2023-05-02T10:41:24.595Z,37.50
2023-05-02T10:43:51.553Z,38.00
2023-05-02T10:46:34.473Z,38.20
2023-05-02T10:49:01.566Z,37.20
2023-05-02T10:51:32.163Z,36.60
2023-05-02T10:54:17.287Z,37.80
2023-05-02T10:56:59.351Z,38.20
2023-05-02T10:59:26.977Z,37.60
2023-05-02T11:01:53.742Z,38.00
2023-05-02T11:04:20.584Z,38.50
2023-05-02T11:06:56.562Z,40.10
2023-05-02T11:09:23.338Z,41.10
2023-05-02T11:11:52.881Z,42.10
2023-05-02T11:14:25.689Z,42.60
2023-05-02T11:17:01.662Z,42.40
2023-05-02T11:19:31.053Z,42.70
2023-05-02T11:22:16.725Z,43.00
2023-05-02T11:24:44.864Z,43.70
2023-05-02T11:27:38.387Z,44.80
2023-05-02T11:30:06.784Z,45.70
2023-05-02T11:32:46.319Z,45.70
2023-05-02T11:35:16.355Z,45.80
2023-05-02T11:37:43.146Z,45.60
2023-05-02T11:40:13.415Z,45.90
2023-05-02T11:42:40.373Z,45.90
2023-05-02T11:45:07.366Z,45.80
2023-05-02T11:47:34.159Z,46.50
2023-05-02T11:50:04.358Z,46.90
2023-05-02T11:52:31.805Z,47.10
2023-05-02T11:54:58.664Z,47.90
2023-05-02T11:57:25.573Z,47.40
2023-05-02T11:59:52.427Z,47.00
2023-05-02T12:02:19.469Z,46.90
2023-05-02T12:04:46.266Z,47.20
2023-05-02T12:07:13.070Z,46.80
2023-05-02T12:09:55.456Z,46.70
2023-05-02T12:12:22.450Z,45.90
2023-05-02T12:14:49.297Z,45.80
2023-05-02T12:17:16.916Z,45.30
2023-05-02T12:19:43.866Z,46.30
2023-05-02T12:22:11.195Z,46.10
2023-05-02T12:24:38.058Z,47.00
2023-05-02T12:27:14.517Z,47.70
2023-05-02T12:29:41.881Z,47.80
2023-05-02T12:32:08.939Z,48.40
2023-05-02T12:34:36.255Z,48.70
2023-05-02T12:37:04.084Z,49.10
2023-05-02T12:39:36.813Z,49.10
2023-05-02T12:42:13.596Z,47.50
2023-05-02T12:44:41.528Z,46.70
2023-05-02T12:47:11.134Z,47.30
2023-05-02T12:49:50.888Z,52.90
2023-05-02T12:52:18.574Z,57.90
2023-05-02T12:54:46.506Z,62.90
2023-05-02T12:57:23.885Z,68.90
2023-05-02T12:59:52.085Z,72.50
2023-05-02T13:02:19.147Z,75.90
2023-05-02T13:04:45.875Z,78.20
2023-05-02T13:07:12.775Z,79.10
2023-05-02T13:09:39.515Z,80.20
2023-05-02T13:12:06.854Z,81.40
2023-05-02T13:14:33.775Z,81.90
2023-05-02T13:17:00.707Z,81.80
2023-05-02T13:19:31.245Z,82.40
2023-05-02T13:21:58.135Z,82.30
2023-05-02T13:24:24.924Z,83.20
2023-05-02T13:26:52.065Z,83.10
2023-05-02T13:29:18.751Z,83.10
2023-05-02T13:31:45.511Z,83.90
2023-05-02T13:34:12.252Z,84.50
2023-05-02T13:36:46.027Z,84.50
2023-05-02T13:39:14.131Z,85.50
2023-05-02T13:41:41.459Z,86.80
2023-05-02T13:44:09.261Z,88.00
2023-05-02T13:46:37.840Z,87.10
2023-05-02T13:49:05.283Z,86.90
2023-05-02T13:51:32.567Z,87.20
2023-05-02T13:53:59.680Z,86.70
2023-05-02T13:56:26.918Z,86.50
2023-05-02T13:58:53.735Z,86.10
2023-05-02T14:01:20.529Z,86.00
2023-05-02T14:03:47.488Z,85.80
2023-05-02T14:06:14.439Z,86.40
2023-05-02T14:08:41.278Z,87.70
2023-05-02T14:11:08.069Z,87.30
2023-05-02T14:13:34.855Z,85.60
2023-05-02T14:16:01.697Z,86.10
2023-05-02T14:18:28.581Z,85.80
2023-05-02T14:20:59.829Z,85.40
2023-05-02T14:23:28.358Z,85.80
2023-05-02T14:25:55.653Z,85.70
2023-05-02T14:28:22.646Z,85.40
2023-05-02T14:30:49.655Z,84.30
2023-05-02T14:33:16.817Z,85.30
2023-05-02T14:35:43.625Z,85.10
2023-05-02T14:38:10.484Z,85.00
2023-05-02T14:40:38.152Z,83.30
2023-05-02T14:43:04.998Z,83.60
2023-05-02T14:45:31.802Z,83.50
2023-05-02T14:47:58.676Z,84.00
2023-05-02T14:50:26.149Z,83.30
2023-05-02T14:52:52.848Z,82.70
2023-05-02T14:55:19.513Z,82.10
2023-05-02T14:57:46.270Z,83.30
2023-05-02T15:00:13.351Z,81.10
2023-05-02T15:02:40.264Z,81.40
2023-05-02T15:05:11.860Z,81.60
2023-05-02T15:07:38.894Z,80.60
2023-05-02T15:10:05.952Z,80.60
2023-05-02T15:12:32.710Z,79.10
2023-05-02T15:14:59.493Z,78.50
2023-05-02T15:17:26.372Z,78.90
2023-05-02T15:19:53.119Z,77.40
2023-05-02T15:22:20.694Z,77.70
2023-05-02T15:24:47.389Z,77.40
2023-05-02T15:27:14.990Z,75.40
2023-05-02T15:29:41.727Z,76.20
2023-05-02T15:32:08.525Z,74.60
2023-05-02T15:34:35.432Z,75.70
2023-05-02T15:37:02.215Z,77.10
2023-05-02T15:39:28.982Z,76.70
2023-05-02T15:41:55.823Z,77.80
2023-05-02T15:44:22.533Z,78.90
2023-05-02T15:46:49.422Z,78.70
2023-05-02T15:49:16.259Z,76.60
2023-05-02T15:51:42.964Z,75.10
2023-05-02T15:54:09.771Z,75.70
2023-05-02T15:56:36.555Z,75.50
2023-05-02T15:59:03.351Z,75.50
2023-05-02T16:01:30.067Z,76.10
2023-05-02T16:03:56.853Z,76.40
2023-05-02T16:06:23.666Z,74.30
2023-05-02T16:08:50.359Z,73.80
2023-05-02T16:11:17.084Z,76.20
2023-05-02T16:13:43.765Z,77.50
2023-05-02T16:16:10.552Z,78.60
2023-05-02T16:18:37.550Z,77.80
2023-05-02T16:21:05.518Z,77.60
2023-05-02T16:23:32.287Z,77.70
2023-05-02T16:26:02.033Z,78.80
2023-05-02T16:28:28.996Z,79.50
2023-05-02T16:30:55.863Z,79.00
2023-05-02T16:33:22.704Z,79.20
2023-05-02T16:35:49.466Z,79.10
2023-05-02T16:38:16.215Z,79.40
2023-05-02T16:40:42.963Z,79.30
2023-05-02T16:43:09.708Z,78.60
2023-05-02T16:45:36.400Z,78.30
2023-05-02T16:48:04.619Z,77.70
2023-05-02T16:50:31.833Z,77.90
2023-05-02T16:52:58.505Z,78.40
2023-05-02T16:55:25.188Z,78.20
2023-05-02T16:57:51.929Z,76.70
2023-05-02T17:00:19.112Z,77.00
2023-05-02T17:02:46.917Z,76.80
2023-05-02T17:05:13.852Z,77.00
2023-05-02T17:07:40.640Z,77.30
2023-05-02T17:10:07.634Z,78.40
2023-05-02T17:12:34.362Z,78.60
2023-05-02T17:15:03.525Z,79.50
2023-05-02T17:17:31.028Z,78.70
2023-05-02T17:19:57.869Z,78.80
2023-05-02T17:22:24.717Z,78.80
2023-05-02T17:24:54.116Z,78.60
2023-05-02T17:27:20.952Z,78.50
2023-05-02T17:29:47.700Z,78.50
2023-05-02T17:32:15.786Z,78.60
2023-05-02T17:34:43.537Z,79.00
2023-05-02T17:37:10.449Z,79.70
2023-05-02T17:39:37.139Z,80.30
2023-05-02T17:42:03.927Z,80.30
2023-05-02T17:44:36.853Z,79.90
2023-05-02T17:47:04.040Z,80.30
2023-05-02T17:49:30.788Z,80.60
2023-05-02T17:51:57.530Z,80.50
2023-05-02T17:54:24.352Z,80.70
2023-05-02T17:56:51.261Z,80.90
2023-05-02T17:59:18.910Z,79.60
2023-05-02T18:01:45.807Z,80.60
2023-05-02T18:04:14.184Z,80.10
2023-05-02T18:06:41.020Z,80.00
2023-05-02T18:09:08.180Z,80.20
2023-05-02T18:11:35.271Z,80.60
2023-05-02T18:14:06.061Z,80.60
2023-05-02T18:16:34.446Z,81.00
2023-05-02T18:19:01.414Z,80.50
2023-05-02T18:21:28.268Z,80.80
2023-05-02T18:23:56.641Z,80.50
2023-05-02T18:26:23.425Z,81.00
2023-05-02T18:28:53.400Z,81.20
2023-05-02T18:31:20.774Z,80.50
2023-05-02T18:33:47.710Z,81.20
2023-05-02T18:36:19.146Z,81.30
2023-05-02T18:38:46.296Z,81.60
2023-05-02T18:41:13.286Z,81.90
2023-05-02T18:43:40.019Z,82.20
2023-05-02T18:46:07.864Z,82.60
2023-05-02T18:48:36.088Z,81.50
2023-05-02T18:51:02.850Z,82.30
2023-05-02T18:53:29.727Z,82.20
2023-05-02T18:55:56.501Z,82.30
2023-05-02T18:58:23.490Z,82.60
2023-05-02T19:00:50.448Z,82.20
2023-05-02T19:03:17.451Z,82.90
2023-05-02T19:05:44.657Z,82.30
2023-05-02T19:08:11.970Z,82.50
2023-05-02T19:10:38.868Z,83.00
2023-05-02T19:13:05.606Z,83.40
2023-05-02T19:15:33.275Z,83.40
2023-05-02T19:18:00.715Z,82.90
2023-05-02T19:20:28.094Z,82.60
2023-05-02T19:23:07.203Z,83.60
2023-05-02T19:25:41.912Z,83.50
2023-05-02T19:28:08.708Z,82.90
2023-05-02T19:30:36.104Z,83.60
2023-05-02T19:33:02.876Z,83.00
2023-05-02T19:35:33.916Z,82.80
2023-05-02T19:38:01.084Z,82.20
2023-05-02T19:40:27.991Z,82.30
2023-05-02T19:42:54.710Z,82.60
2023-05-02T19:45:21.428Z,82.50
2023-05-02T19:47:48.327Z,82.00
2023-05-02T19:50:15.127Z,82.60
2023-05-02T19:52:42.813Z,82.40
2023-05-02T19:55:09.692Z,83.00
2023-05-02T19:57:36.667Z,83.00
2023-05-02T20:00:04.596Z,82.90
2023-05-02T20:02:31.720Z,82.40
2023-05-02T20:04:58.444Z,82.70
2023-05-02T20:07:25.165Z,82.30
2023-05-02T20:09:52.471Z,82.60
2023-05-02T20:12:19.215Z,82.40
2023-05-02T20:14:45.965Z,82.70
2023-05-02T20:17:12.691Z,82.70
2023-05-02T20:19:39.486Z,82.90
2023-05-02T20:22:06.251Z,83.00
2023-05-02T20:24:32.948Z,82.90
2023-05-02T20:26:59.898Z,83.10
2023-05-02T20:29:26.633Z,83.40
2023-05-02T20:31:54.484Z,83.40
2023-05-02T20:34:22.471Z,83.20
2023-05-02T20:36:49.301Z,83.20
2023-05-02T20:39:20.306Z,83.30
2023-05-02T20:41:48.245Z,83.20
2023-05-02T20:44:16.967Z,83.40
2023-05-02T20:46:43.836Z,83.90
2023-05-02T20:49:10.539Z,83.60
2023-05-02T20:51:37.336Z,83.80
2023-05-02T20:54:04.123Z,84.20
2023-05-02T20:56:30.849Z,84.00
2023-05-02T20:58:57.590Z,83.90
2023-05-02T21:01:25.222Z,84.10
2023-05-02T21:03:51.991Z,84.10
2023-05-02T21:06:19.041Z,83.70
2023-05-02T21:08:45.794Z,83.80
2023-05-02T21:11:13.943Z,84.30
2023-05-02T21:13:40.945Z,84.20
2023-05-02T21:16:17.762Z,83.70
2023-05-02T21:18:45.002Z,84.50
2023-05-02T21:21:11.799Z,84.20
2023-05-02T21:23:38.583Z,84.80
2023-05-02T21:26:05.435Z,83.80
2023-05-02T21:28:32.170Z,83.80
2023-05-02T21:30:58.933Z,84.30
2023-05-02T21:33:25.629Z,84.00
2023-05-02T21:35:56.261Z,84.10
2023-05-02T21:38:23.550Z,84.20
2023-05-02T21:40:50.649Z,83.80
2023-05-02T21:43:17.429Z,84.10
2023-05-02T21:45:45.465Z,84.40
2023-05-02T21:48:13.159Z,84.50
2023-05-02T21:50:40.472Z,84.30
2023-05-02T21:53:07.431Z,84.70
2023-05-02T21:55:36.580Z,84.50
2023-05-02T21:58:07.395Z,85.10
2023-05-02T22:00:35.404Z,85.00
2023-05-02T22:03:07.540Z,84.80
2023-05-02T22:05:35.889Z,84.90
2023-05-02T22:08:02.845Z,85.20
2023-05-02T22:10:30.053Z,85.30
2023-05-02T22:12:56.810Z,85.20
2023-05-02T22:15:23.537Z,84.80
2023-05-02T22:17:50.644Z,85.10
2023-05-02T22:20:17.468Z,85.10
2023-05-02T22:22:44.666Z,85.20
2023-05-02T22:25:11.422Z,85.30
2023-05-02T22:27:38.126Z,85.70
2023-05-02T22:30:05.526Z,85.80
2023-05-02T22:32:32.293Z,85.30
2023-05-02T22:34:59.293Z,85.50
2023-05-02T22:37:26.194Z,85.40
2023-05-02T22:39:53.745Z,85.50
2023-05-02T22:42:20.777Z,85.20
2023-05-02T22:44:54.528Z,85.30
2023-05-02T22:47:21.841Z,85.40
2023-05-02T22:49:49.195Z,85.20
2023-05-02T22:52:18.356Z,85.30
2023-05-02T22:54:45.127Z,85.10
2023-05-02T22:57:11.833Z,85.40
2023-05-02T22:59:38.582Z,85.20
2023-05-02T23:02:05.471Z,85.40
2023-05-02T23:04:33.485Z,85.30
2023-05-02T23:07:00.197Z,85.60
2023-05-02T23:09:26.928Z,85.60
2023-05-02T23:11:53.645Z,85.90
2023-05-02T23:14:22.856Z,85.50
2023-05-02T23:16:53.931Z,85.60
2023-05-02T23:19:20.712Z,85.80
2023-05-02T23:21:47.447Z,85.60
2023-05-02T23:24:14.180Z,85.30
2023-05-02T23:26:40.926Z,85.10
2023-05-02T23:29:07.690Z,85.10
2023-05-02T23:31:34.529Z,85.20
2023-05-02T23:34:01.220Z,85.50
2023-05-02T23:36:27.967Z,85.50
2023-05-02T23:38:54.680Z,85.60
2023-05-02T23:41:21.728Z,85.30
2023-05-02T23:43:48.510Z,85.80
2023-05-02T23:46:15.374Z,86.10
2023-05-02T23:48:42.077Z,85.70
2023-05-02T23:51:08.780Z,85.70
2023-05-02T23:53:35.636Z,86.40
2023-05-02T23:56:02.380Z,86.40
2023-05-02T23:58:29.079Z,86.40
